• Join FlightAware (Why Join?)
  • Login
  • US Flag 
04:10AM EST


 

Airport Tracker/Info


-or-


 

Live Flight TrackerFlight Track Log ✈ AFL150 ✈ 16-Dec-2013 ✈ UUEE / SVO - MUHA / HAV

Flight Track Log - Related Links

Times and Time Zones

All times are in EST time to prevent confusion due to time zone crossing. See the AFL150 flight status page for this flight to view local times or setup timezone preferences in your user account.

Time Position Orientation Groundspeed Altitude Reporting Facility
EST Latitude Longitude Course Direction KTS MPH feet Rate Location/Type
04:25AM 56.1035 37.1318 320° Northwest  Level FlightAware Approximate
04:26AM 56.1947 36.9924 320° Northwest  Level FlightAware Approximate
04:27AM 56.2858 36.8523 320° Northwest  Level FlightAware Approximate
04:28AM 56.3767 36.7116 319° Northwest  Level FlightAware Approximate
04:29AM 56.4674 36.5702 319° Northwest  Level FlightAware Approximate
04:30AM 56.5580 36.4282 319° Northwest  Level FlightAware Approximate
04:31AM 56.6484 36.2854 319° Northwest  Level FlightAware Approximate
04:32AM 56.7387 36.1420 319° Northwest  Level FlightAware Approximate
04:33AM 56.8288 35.9979 319° Northwest  Level FlightAware Approximate
04:34AM 56.9187 35.8531 319° Northwest  Level FlightAware Approximate
04:35AM 57.0085 35.7076 319° Northwest  Level FlightAware Approximate
04:36AM 57.0981 35.5613 318° Northwest  Level FlightAware Approximate
04:37AM 57.1875 35.4144 318° Northwest  Level FlightAware Approximate
04:38AM 57.2767 35.2668 318° Northwest  Level FlightAware Approximate
04:39AM 57.3658 35.1184 318° Northwest  Level FlightAware Approximate
04:40AM 57.4547 34.9693 318° Northwest  Level FlightAware Approximate
04:41AM 57.5434 34.8195 318° Northwest  Level FlightAware Approximate
04:42AM 57.6320 34.6690 318° Northwest  Level FlightAware Approximate
04:43AM 57.7203 34.5177 318° Northwest  Level FlightAware Approximate
04:44AM 57.8085 34.3657 317° Northwest  Level FlightAware Approximate
04:45AM 57.8178 34.3379 315° West  Level FlightAware Approximate
04:46AM 57.9018 34.1773 315° West  Level FlightAware Approximate
04:47AM 57.9856 34.0160 314° West  Level FlightAware Approximate
04:48AM 58.0692 33.8540 314° West  Level FlightAware Approximate
04:49AM 58.1525 33.6912 314° West  Level FlightAware Approximate
04:50AM 58.2357 33.5276 314° West  Level FlightAware Approximate
04:51AM 58.3187 33.3632 314° West  Level FlightAware Approximate
04:52AM 58.4014 33.1981 314° West  Level FlightAware Approximate
04:53AM 58.4840 33.0322 314° West  Level FlightAware Approximate
04:54AM 58.5663 32.8656 313° West  Level FlightAware Approximate
04:55AM 58.6484 32.6981 313° West  Level FlightAware Approximate
04:56AM 58.7303 32.5298 313° West  Level FlightAware Approximate
04:57AM 58.8119 32.3608 313° West  Level FlightAware Approximate
04:58AM 58.8934 32.1910 313° West  Level FlightAware Approximate
04:59AM 58.9746 32.0203 313° West  Level FlightAware Approximate
05:00AM 59.0557 31.8491 313° West  Level FlightAware Approximate
05:01AM 59.1367 31.6772 313° West  Level FlightAware Approximate
05:02AM 59.2174 31.5045 312° West  Level FlightAware Approximate
05:03AM 59.2979 31.3309 312° West  Level FlightAware Approximate
05:04AM 59.3781 31.1565 312° West  Level FlightAware Approximate
05:05AM 59.4581 30.9813 312° West  Level FlightAware Approximate
05:06AM 59.5379 30.8053 312° West  Level FlightAware Approximate
05:07AM 59.6175 30.6285 312° West  Level FlightAware Approximate
05:08AM 59.6968 30.4508 312° West  Level FlightAware Approximate
05:09AM 59.7759 30.2722 311° West  Level FlightAware Approximate
05:10AM 59.8547 30.0928 311° West  Level FlightAware Approximate
05:11AM 59.9333 29.9126 311° West  Level FlightAware Approximate
05:12AM 60.0116 29.7315 311° West  Level FlightAware Approximate
05:13AM 60.0897 29.5495 311° West  Level FlightAware Approximate
05:14AM 60.1675 29.3667 311° West  Level FlightAware Approximate
05:15AM 60.2451 29.1830 310° West  Level FlightAware Approximate
05:16AM 60.3225 28.9984 310° West  Level FlightAware Approximate
05:17AM 60.3995 28.8130 310° West  Level FlightAware Approximate
05:18AM 60.4763 28.6267 310° West  Level FlightAware Approximate
05:19AM 60.5529 28.4395 310° West  Level FlightAware Approximate
05:20AM 60.6292 28.2514 310° West  Level FlightAware Approximate
05:21AM 60.7052 28.0625 309° West  Level FlightAware Approximate
05:22AM 60.7810 27.8726 309° West  Level FlightAware Approximate
05:23AM 60.8563 27.6816 309° West  Level FlightAware Approximate
05:24AM 60.9314 27.4897 309° West  Level FlightAware Approximate
05:25AM 61.0062 27.2969 309° West  Level FlightAware Approximate
05:26AM 61.0808 27.1033 309° West  Level FlightAware Approximate
05:27AM 61.1550 26.9086 308° West  Level FlightAware Approximate
05:28AM 61.2290 26.7131 308° West  Level FlightAware Approximate
05:29AM 61.3027 26.5167 308° West  Level FlightAware Approximate
05:30AM 61.3761 26.3193 308° West  Level FlightAware Approximate
05:31AM 61.4492 26.1210 308° West  Level FlightAware Approximate
05:32AM 61.5221 25.9218 308° West  Level FlightAware Approximate
05:33AM 61.5946 25.7216 307° West  Level FlightAware Approximate
05:34AM 61.6669 25.5205 307° West  Level FlightAware Approximate
05:35AM 61.7388 25.3185 307° West  Level FlightAware Approximate
05:36AM 61.8105 25.1155 307° West  Level FlightAware Approximate
05:37AM 61.8818 24.9116 307° West  Level FlightAware Approximate
05:38AM 61.9529 24.7067 306° West  Level FlightAware Approximate
05:39AM 62.0236 24.5009 306° West  Level FlightAware Approximate
05:40AM 62.0940 24.2941 306° West  Level FlightAware Approximate
05:41AM 62.1642 24.0863 306° West  Level FlightAware Approximate
05:42AM 62.2340 23.8776 306° West  Level FlightAware Approximate
05:43AM 62.3035 23.6679 306° West  Level FlightAware Approximate
05:44AM 62.3726 23.4573 305° West  Level FlightAware Approximate
05:45AM 62.4415 23.2457 305° West  Level FlightAware Approximate
05:46AM 62.5100 23.0331 305° West  Level FlightAware Approximate
05:47AM 62.5783 22.8195 305° West  Level FlightAware Approximate
05:48AM 62.6461 22.6050 305° West  Level FlightAware Approximate
05:49AM 62.7137 22.3894 304° West  Level FlightAware Approximate
05:50AM 62.7809 22.1729 304° West  Level FlightAware Approximate
05:51AM 62.8478 21.9554 304° West  Level FlightAware Approximate
05:52AM 62.9144 21.7369 304° West  Level FlightAware Approximate
05:53AM 62.9806 21.5174 304° West  Level FlightAware Approximate
05:54AM 63.0465 21.2969 303° West  Level FlightAware Approximate
05:55AM 63.1120 21.0755 303° West  Level FlightAware Approximate
05:56AM 63.1772 20.8530 303° West  Level FlightAware Approximate
05:57AM 63.2420 20.6295 303° West  Level FlightAware Approximate
05:58AM 63.3065 20.4050 303° West  Level FlightAware Approximate
05:59AM 63.3706 20.1795 302° West  Level FlightAware Approximate
06:00AM 63.4344 19.9530 302° West  Level FlightAware Approximate
06:01AM 63.4978 19.7255 302° West  Level FlightAware Approximate
06:02AM 63.5608 19.4970 302° West  Level FlightAware Approximate
06:03AM 63.6235 19.2675 302° West  Level FlightAware Approximate
06:04AM 63.6858 19.0370 301° West  Level FlightAware Approximate
06:05AM 63.7478 18.8054 301° West  Level FlightAware Approximate
06:06AM 63.8093 18.5729 301° West  Level FlightAware Approximate
06:07AM 63.8705 18.3393 301° West  Level FlightAware Approximate
06:08AM 63.9314 18.1047 301° West  Level FlightAware Approximate
06:09AM 63.9918 17.8691 300° West  Level FlightAware Approximate
06:10AM 64.0518 17.6325 300° West  Level FlightAware Approximate
06:11AM 64.1115 17.3948 300° West  Level FlightAware Approximate
06:12AM 64.1708 17.1562 300° West  Level FlightAware Approximate
06:13AM 64.2297 16.9165 300° West  Level FlightAware Approximate
06:14AM 64.2882 16.6758 299° West  Level FlightAware Approximate
06:15AM 64.3463 16.4341 299° West  Level FlightAware Approximate
06:16AM 64.4040 16.1913 299° West  Level FlightAware Approximate
06:17AM 64.4613 15.9476 299° West  Level FlightAware Approximate
06:18AM 64.5182 15.7028 298° West  Level FlightAware Approximate
06:19AM 64.5746 15.4570 298° West  Level FlightAware Approximate
06:20AM 64.6307 15.2102 298° West  Level FlightAware Approximate
06:21AM 64.6864 14.9623 298° West  Level FlightAware Approximate
06:22AM 64.7416 14.7135 298° West  Level FlightAware Approximate
06:23AM 64.7964 14.4636 297° West  Level FlightAware Approximate
06:24AM 64.8508 14.2128 297° West  Level FlightAware Approximate
06:25AM 64.9048 13.9609 297° West  Level FlightAware Approximate
06:26AM 64.9584 13.7080 297° West  Level FlightAware Approximate
06:27AM 65.0115 13.4541 296° West  Level FlightAware Approximate
06:28AM 65.0642 13.1991 296° West  Level FlightAware Approximate
06:29AM 65.1164 12.9432 296° West  Level FlightAware Approximate
06:30AM 65.1682 12.6863 296° West  Level FlightAware Approximate
06:31AM 65.2196 12.4283 296° West  Level FlightAware Approximate
06:32AM 65.2705 12.1694 295° West  Level FlightAware Approximate
06:33AM 65.3210 11.9095 295° West  Level FlightAware Approximate
06:34AM 65.3710 11.6486 295° West  Level FlightAware Approximate
06:35AM 65.4206 11.3867 295° West  Level FlightAware Approximate
06:36AM 65.4697 11.1237 294° West  Level FlightAware Approximate
06:37AM 65.5184 10.8599 294° West  Level FlightAware Approximate
06:38AM 65.5666 10.5950 294° West  Level FlightAware Approximate
06:39AM 65.6144 10.3291 294° West  Level FlightAware Approximate
06:40AM 65.6617 10.0623 293° West  Level FlightAware Approximate
06:41AM 65.7085 9.7945 293° West  Level FlightAware Approximate
06:42AM 65.7548 9.5258 293° West  Level FlightAware Approximate
06:43AM 65.8007 9.2561 293° West  Level FlightAware Approximate
06:44AM 65.8461 8.9854 292° West  Level FlightAware Approximate
06:45AM 65.8910 8.7137 292° West  Level FlightAware Approximate
06:46AM 65.9354 8.4412 292° West  Level FlightAware Approximate
06:47AM 65.9794 8.1676 292° West  Level FlightAware Approximate
06:48AM 66.0228 7.8932 291° West  Level FlightAware Approximate
06:49AM 66.0658 7.6178 291° West  Level FlightAware Approximate
06:50AM 66.1083 7.3415 291° West  Level FlightAware Approximate
06:51AM 66.1503 7.0642 291° West  Level FlightAware Approximate
06:52AM 66.1917 6.7861 290° West  Level FlightAware Approximate
06:53AM 66.2327 6.5070 290° West  Level FlightAware Approximate
06:54AM 66.2732 6.2270 290° West  Level FlightAware Approximate
06:55AM 66.3132 5.9462 290° West  Level FlightAware Approximate
06:56AM 66.3526 5.6644 289° West  Level FlightAware Approximate
06:57AM 66.3916 5.3818 289° West  Level FlightAware Approximate
06:58AM 66.4300 5.0983 289° West  Level FlightAware Approximate
06:59AM 66.4680 4.8139 289° West  Level FlightAware Approximate
07:00AM 66.5054 4.5287 288° West  Level FlightAware Approximate
07:01AM 66.5423 4.2426 288° West  Level FlightAware Approximate
07:02AM 66.5786 3.9557 288° West  Level FlightAware Approximate
07:03AM 66.6145 3.6679 288° West  Level FlightAware Approximate
07:04AM 66.6498 3.3793 287° West  Level FlightAware Approximate
07:05AM 66.6846 3.0899 287° West  Level FlightAware Approximate
07:06AM 66.7188 2.7996 287° West  Level FlightAware Approximate
07:07AM 66.7525 2.5086 286° West  Level FlightAware Approximate
07:08AM 66.7857 2.2168 286° West  Level FlightAware Approximate
07:09AM 66.8184 1.9242 286° West  Level FlightAware Approximate
07:10AM 66.8504 1.6308 286° West  Level FlightAware Approximate
07:11AM 66.8820 1.3367 285° West  Level FlightAware Approximate
07:12AM 66.9130 1.0418 285° West  Level FlightAware Approximate
07:13AM 66.9434 0.7462 285° West  Level FlightAware Approximate
07:14AM 66.9733 0.4498 285° West  Level FlightAware Approximate
07:15AM 67.0027 0.1527 284° West  Level FlightAware Approximate
07:16AM 67.0315 -0.1451 284° West  Level FlightAware Approximate
07:17AM 67.0597 -0.4436 284° West  Level FlightAware Approximate
07:18AM 67.0874 -0.7428 283° West  Level FlightAware Approximate
07:19AM 67.1145 -1.0427 283° West  Level FlightAware Approximate
07:20AM 67.1411 -1.3432 283° West  Level FlightAware Approximate
07:21AM 67.1671 -1.6444 283° West  Level FlightAware Approximate
07:22AM 67.1925 -1.9462 282° West  Level FlightAware Approximate
07:23AM 67.2173 -2.2487 282° West  Level FlightAware Approximate
07:24AM 67.2416 -2.5517 282° West  Level FlightAware Approximate
07:25AM 67.2653 -2.8554 282° West  Level FlightAware Approximate
07:26AM 67.2885 -3.1597 281° West  Level FlightAware Approximate
07:27AM 67.3110 -3.4646 281° West  Level FlightAware Approximate
07:28AM 67.3330 -3.7700 281° West  Level FlightAware Approximate
07:29AM 67.3544 -4.0760 280° West  Level FlightAware Approximate
07:30AM 67.3752 -4.3825 280° West  Level FlightAware Approximate
07:31AM 67.3954 -4.6895 280° West  Level FlightAware Approximate
07:32AM 67.4151 -4.9971 280° West  Level FlightAware Approximate
07:33AM 67.4341 -5.3052 279° West  Level FlightAware Approximate
07:34AM 67.4526 -5.6137 279° West  Level FlightAware Approximate
07:35AM 67.4705 -5.9227 279° West  Level FlightAware Approximate
07:36AM 67.4878 -6.2322 278° West  Level FlightAware Approximate
07:37AM 67.5045 -6.5421 278° West  Level FlightAware Approximate
07:38AM 67.5206 -6.8525 278° West  Level FlightAware Approximate
07:39AM 67.5361 -7.1632 278° West  Level FlightAware Approximate
07:40AM 67.5510 -7.4744 277° West  Level FlightAware Approximate
07:41AM 67.5653 -7.7859 277° West  Level FlightAware Approximate
07:42AM 67.5790 -8.0978 277° West  Level FlightAware Approximate
07:43AM 67.5922 -8.4101 276° West  Level FlightAware Approximate
07:44AM 67.6047 -8.7227 276° West  Level FlightAware Approximate
07:45AM 67.6166 -9.0357 276° West  Level FlightAware Approximate
07:46AM 67.6279 -9.3489 276° West  Level FlightAware Approximate
07:47AM 67.6386 -9.6624 275° West  Level FlightAware Approximate
07:48AM 67.6488 -9.9762 275° West  Level FlightAware Approximate
07:49AM 67.6582 -10.2903 275° West  Level FlightAware Approximate
07:50AM 67.6672 -10.6046 274° West  Level FlightAware Approximate
07:51AM 67.6754 -10.9192 274° West  Level FlightAware Approximate
07:52AM 67.6831 -11.2339 274° West  Level FlightAware Approximate
07:53AM 67.6902 -11.5489 274° West  Level FlightAware Approximate
07:54AM 67.6967 -11.8640 273° West  Level FlightAware Approximate
07:55AM 67.7025 -12.1793 273° West  Level FlightAware Approximate
07:56AM 67.7078 -12.4948 273° West  Level FlightAware Approximate
07:57AM 67.7124 -12.8104 272° West  Level FlightAware Approximate
07:58AM 67.7165 -13.1261 272° West  Level FlightAware Approximate
07:59AM 67.7199 -13.4419 272° West  Level FlightAware Approximate
08:00AM 67.7227 -13.7578 271° West  Level FlightAware Approximate
08:01AM 67.7249 -14.0737 271° West  Level FlightAware Approximate
08:02AM 67.7265 -14.3897 271° West  Level FlightAware Approximate
08:03AM 67.7274 -14.7058 271° West  Level FlightAware Approximate
08:04AM 67.7278 -15.0218 270° West  Level FlightAware Approximate
08:05AM 67.7275 -15.3379 270° West  Level FlightAware Approximate
08:06AM 67.7267 -15.6539 270° West  Level FlightAware Approximate
08:07AM 67.7252 -15.9699 269° West  Level FlightAware Approximate
08:08AM 67.7231 -16.2859 269° West  Level FlightAware Approximate
08:09AM 67.7205 -16.6018 269° West  Level FlightAware Approximate
08:10AM 67.7171 -16.9176 269° West  Level FlightAware Approximate
08:11AM 67.7132 -17.2333 268° West  Level FlightAware Approximate
08:12AM 67.7087 -17.5489 268° West  Level FlightAware Approximate
08:13AM 67.7036 -17.8644 268° West  Level FlightAware Approximate
08:14AM 67.6978 -18.1798 267° West  Level FlightAware Approximate
08:15AM 67.6915 -18.4949 267° West  Level FlightAware Approximate
08:16AM 67.6845 -18.8099 267° West  Level FlightAware Approximate
08:17AM 67.6769 -19.1247 267° West  Level FlightAware Approximate
08:18AM 67.6687 -19.4393 266° West  Level FlightAware Approximate
08:19AM 67.6600 -19.7537 266° West  Level FlightAware Approximate
08:20AM 67.6506 -20.0678 266° West  Level FlightAware Approximate
08:21AM 67.6406 -20.3816 265° West  Level FlightAware Approximate
08:22AM 67.6300 -20.6952 265° West  Level FlightAware Approximate
08:23AM 67.6188 -21.0085 265° West  Level FlightAware Approximate
08:24AM 67.6070 -21.3215 264° West  Level FlightAware Approximate
08:25AM 67.5946 -21.6342 264° West  Level FlightAware Approximate
08:26AM 67.5816 -21.9465 264° West  Level FlightAware Approximate
08:27AM 67.5679 -22.2585 264° West  Level FlightAware Approximate
08:28AM 67.5537 -22.5701 263° West  Level FlightAware Approximate
08:29AM 67.5389 -22.8813 263° West  Level FlightAware Approximate
08:30AM 67.5235 -23.1922 263° West  Level FlightAware Approximate
08:31AM 67.5075 -23.5026 262° West  Level FlightAware Approximate
08:32AM 67.4910 -23.8126 262° West  Level FlightAware Approximate
08:33AM 67.4738 -24.1222 262° West  Level FlightAware Approximate
08:34AM 67.4560 -24.4313 262° West  Level FlightAware Approximate
08:35AM 67.4376 -24.7399 261° West  Level FlightAware Approximate
08:36AM 67.4187 -25.0481 261° West  Level FlightAware Approximate
08:37AM 67.3991 -25.3557 261° West  Level FlightAware Approximate
08:38AM 67.3790 -25.6628 260° West  Level FlightAware Approximate
08:39AM 67.3583 -25.9695 260° West  Level FlightAware Approximate
08:40AM 67.3370 -26.2756 260° West  Level FlightAware Approximate
08:41AM 67.3152 -26.5811 260° West  Level FlightAware Approximate
08:42AM 67.2927 -26.8860 259° West  Level FlightAware Approximate
08:43AM 67.2697 -27.1904 259° West  Level FlightAware Approximate
08:44AM 67.2461 -27.4942 259° West  Level FlightAware Approximate
08:45AM 67.2219 -27.7974 258° West  Level FlightAware Approximate
08:46AM 67.1972 -28.1000 258° West  Level FlightAware Approximate
08:47AM 67.1719 -28.4020 258° West  Level FlightAware Approximate
08:48AM 67.1460 -28.7033 258° West  Level FlightAware Approximate
08:49AM 67.1196 -29.0039 257° West  Level FlightAware Approximate
08:50AM 67.0925 -29.3039 257° West  Level FlightAware Approximate
08:51AM 67.0650 -29.6032 257° West  Level FlightAware Approximate
08:52AM 67.0368 -29.9019 257° West  Level FlightAware Approximate
08:53AM 67.0081 -30.1998 256° West  Level FlightAware Approximate
08:54AM 66.9789 -30.4970 256° West  Level FlightAware Approximate
08:55AM 66.9491 -30.7935 256° West  Level FlightAware Approximate
08:56AM 66.9187 -31.0893 255° West  Level FlightAware Approximate
08:57AM 66.8878 -31.3843 255° West  Level FlightAware Approximate
08:58AM 66.8564 -31.6786 255° West  Level FlightAware Approximate
08:59AM 66.8244 -31.9721 255° West  Level FlightAware Approximate
09:00AM 66.7919 -32.2649 254° West  Level FlightAware Approximate
09:01AM 66.7588 -32.5568 254° West  Level FlightAware Approximate
09:02AM 66.7252 -32.8480 254° West  Level FlightAware Approximate
09:03AM 66.6910 -33.1384 254° West  Level FlightAware Approximate
09:04AM 66.6564 -33.4280 253° West  Level FlightAware Approximate
09:05AM 66.6212 -33.7167 253° West  Level FlightAware Approximate
09:06AM 66.5854 -34.0046 253° West  Level FlightAware Approximate
09:07AM 66.5491 -34.2917 253° West  Level FlightAware Approximate
09:08AM 66.5124 -34.5780 252° West  Level FlightAware Approximate
09:09AM 66.4751 -34.8634 252° West  Level FlightAware Approximate
09:10AM 66.4372 -35.1479 252° West  Level FlightAware Approximate
09:11AM 66.3989 -35.4316 251° West  Level FlightAware Approximate
09:12AM 66.3600 -35.7144 251° West  Level FlightAware Approximate
09:13AM 66.3206 -35.9963 251° West  Level FlightAware Approximate
09:14AM 66.2808 -36.2773 251° West  Level FlightAware Approximate
09:15AM 66.2404 -36.5575 250° West  Level FlightAware Approximate
09:16AM 66.1995 -36.8367 250° West  Level FlightAware Approximate
09:17AM 66.1581 -37.1150 250° West  Level FlightAware Approximate
09:18AM 66.1162 -37.3924 250° West  Level FlightAware Approximate
09:19AM 66.0738 -37.6689 249° West  Level FlightAware Approximate
09:20AM 66.0309 -37.9445 249° West  Level FlightAware Approximate
09:21AM 65.9876 -38.2191 249° West  Level FlightAware Approximate
09:22AM 65.9437 -38.4928 249° West  Level FlightAware Approximate
09:23AM 65.8994 -38.7656 248° West  Level FlightAware Approximate
09:24AM 65.8546 -39.0374 248° West  Level FlightAware Approximate
09:25AM 65.8092 -39.3083 248° West  Level FlightAware Approximate
09:26AM 65.7635 -39.5782 248° West  Level FlightAware Approximate
09:27AM 65.7172 -39.8471 247° West  Level FlightAware Approximate
09:28AM 65.6705 -40.1151 247° West  Level FlightAware Approximate
09:29AM 65.6233 -40.3821 247° West  Level FlightAware Approximate
09:30AM 65.5756 -40.6481 247° West  Level FlightAware Approximate
09:31AM 65.5275 -40.9132 246° West  Level FlightAware Approximate
09:32AM 65.4789 -41.1772 246° West  Level FlightAware Approximate
09:33AM 65.4299 -41.4403 246° West  Level FlightAware Approximate
09:34AM 65.3804 -41.7024 246° West  Level FlightAware Approximate
09:35AM 65.3305 -41.9635 245° Southwest  Level FlightAware Approximate
09:36AM 65.2801 -42.2236 245° Southwest  Level FlightAware Approximate
09:37AM 65.2292 -42.4828 245° Southwest  Level FlightAware Approximate
09:38AM 65.1779 -42.7409 245° Southwest  Level FlightAware Approximate
09:39AM 65.1262 -42.9980 245° Southwest  Level FlightAware Approximate
09:40AM 65.0740 -43.2541 244° Southwest  Level FlightAware Approximate
09:41AM 65.0214 -43.5092 244° Southwest  Level FlightAware Approximate
09:42AM 64.9684 -43.7633 244° Southwest  Level FlightAware Approximate
09:43AM 64.9149 -44.0164 244° Southwest  Level FlightAware Approximate
09:44AM 64.8610 -44.2685 243° Southwest  Level FlightAware Approximate
09:45AM 64.8067 -44.5196 243° Southwest  Level FlightAware Approximate
09:46AM 64.7519 -44.7696 243° Southwest  Level FlightAware Approximate
09:47AM 64.6968 -45.0187 243° Southwest  Level FlightAware Approximate
09:48AM 64.6412 -45.2667 242° Southwest  Level FlightAware Approximate
09:49AM 64.5852 -45.5137 242° Southwest  Level FlightAware Approximate
09:50AM 64.5288 -45.7597 242° Southwest  Level FlightAware Approximate
09:51AM 64.4720 -46.0046 242° Southwest  Level FlightAware Approximate
09:52AM 64.4148 -46.2486 242° Southwest  Level FlightAware Approximate
09:53AM 64.3571 -46.4915 241° Southwest  Level FlightAware Approximate
09:54AM 64.2991 -46.7334 241° Southwest  Level FlightAware Approximate
09:55AM 64.2407 -46.9743 241° Southwest  Level FlightAware Approximate
09:56AM 64.1819 -47.2142 241° Southwest  Level FlightAware Approximate
09:57AM 64.1227 -47.4530 240° Southwest  Level FlightAware Approximate
09:58AM 64.0631 -47.6909 240° Southwest  Level FlightAware Approximate
09:59AM 64.0031 -47.9277 240° Southwest  Level FlightAware Approximate
10:00AM 63.9427 -48.1635 240° Southwest  Level FlightAware Approximate
10:01AM 63.8820 -48.3983 240° Southwest  Level FlightAware Approximate
10:02AM 63.8209 -48.6320 239° Southwest  Level FlightAware Approximate
10:03AM 63.7594 -48.8648 239° Southwest  Level FlightAware Approximate
10:04AM 63.6975 -49.0965 239° Southwest  Level FlightAware Approximate
10:05AM 63.6352 -49.3272 239° Southwest  Level FlightAware Approximate
10:06AM 63.5726 -49.5569 239° Southwest  Level FlightAware Approximate
10:07AM 63.5097 -49.7856 238° Southwest  Level FlightAware Approximate
10:08AM 63.4463 -50.0133 238° Southwest  Level FlightAware Approximate
10:09AM 63.3826 -50.2400 238° Southwest  Level FlightAware Approximate
10:10AM 63.3186 -50.4657 238° Southwest  Level FlightAware Approximate
10:11AM 63.2541 -50.6904 238° Southwest  Level FlightAware Approximate
10:12AM 63.1894 -50.9140 237° Southwest  Level FlightAware Approximate
10:13AM 63.1242 -51.1367 237° Southwest  Level FlightAware Approximate
10:14AM 63.0588 -51.3584 237° Southwest  Level FlightAware Approximate
10:15AM 62.9930 -51.5790 237° Southwest  Level FlightAware Approximate
10:16AM 62.9268 -51.7985 236° Southwest  Level FlightAware Approximate
10:17AM 62.8601 -52.0170 236° Southwest  Level FlightAware Approximate
10:18AM 62.7931 -52.2344 236° Southwest  Level FlightAware Approximate
10:19AM 62.7258 -52.4509 236° Southwest  Level FlightAware Approximate
10:20AM 62.6582 -52.6664 236° Southwest  Level FlightAware Approximate
10:21AM 62.5902 -52.8809 236° Southwest  Level FlightAware Approximate
10:22AM 62.5219 -53.0945 235° Southwest  Level FlightAware Approximate
10:23AM 62.4533 -53.3070 235° Southwest  Level FlightAware Approximate
10:24AM 62.3844 -53.5186 235° Southwest  Level FlightAware Approximate
10:25AM 62.3151 -53.7292 235° Southwest  Level FlightAware Approximate
10:26AM 62.2455 -53.9388 235° Southwest  Level FlightAware Approximate
10:27AM 62.1756 -54.1475 234° Southwest  Level FlightAware Approximate
10:28AM 62.1054 -54.3552 234° Southwest  Level FlightAware Approximate
10:29AM 62.0349 -54.5619 234° Southwest  Level FlightAware Approximate
10:30AM 61.9641 -54.7677 234° Southwest  Level FlightAware Approximate
10:31AM 61.8929 -54.9725 234° Southwest  Level FlightAware Approximate
10:32AM 61.8214 -55.1762 233° Southwest  Level FlightAware Approximate
10:33AM 61.7496 -55.3790 233° Southwest  Level FlightAware Approximate
10:33AM 63.4167 -55.8500 217° Southwest 450 518 37,000  Level Gander Center
10:34AM 61.6774 -55.5808 233° Southwest  Level FlightAware Approximate
10:34AM 63.3500 -56.0500 233° Southwest 470 541 37,000  Level Gander Center
10:35AM 61.6050 -55.7817 233° Southwest  Level FlightAware Approximate
10:35AM 63.2833 -56.2667 236° Southwest 460 529 37,000  Level Gander Center
10:36AM 61.5109 -55.9327 217° Southwest  Level Estimated
10:36AM 63.2167 -56.5000 238° Southwest 460 529 37,000  Level Gander Center
10:37AM 61.4168 -56.0828 217° Southwest  Level Estimated
10:37AM 63.1333 -56.7333 232° Southwest 460 529 37,000  Level Gander Center
10:38AM 61.3224 -56.2319 217° Southwest  Level Estimated
10:38AM 63.0500 -56.9667 232° Southwest 450 518 37,000  Level Gander Center
10:39AM 61.2280 -56.3801 217° Southwest  Level Estimated
10:39AM 62.9833 -57.2000 238° Southwest 460 529 37,000  Level Gander Center
10:40AM 62.9167 -57.4333 238° Southwest 460 529 32,500  Descending Gander Center
10:41AM 62.8500 -57.6500 236° Southwest 440 506 37,000 480 Climbing Gander Center
10:49AM 62.2833 -59.2000 231° Southwest 310 357 37,000  Level Montreal Center
10:50AM 62.2333 -59.4000 242° Southwest 420 483 37,000  Level Gander Center
10:51AM 62.2310 -59.3851 233° Southwest  Level FlightAware Approximate
10:51AM 62.1500 -59.6167 231° Southwest 460 529 37,000  Level Gander Center
10:52AM 62.1572 -59.5833 232° Southwest  Level FlightAware Approximate
10:52AM 62.0833 -59.7667 227° Southwest 460 529 37,000  Level Gander Center
10:53AM 62.0831 -59.7806 231° Southwest  Level FlightAware Approximate
10:53AM 61.9833 -60.0167 230° Southwest 450 518 37,000  Level Gander Center
10:54AM 62.0088 -59.9769 231° Southwest  Level FlightAware Approximate
10:54AM 61.9000 -60.1500 217° Southwest 450 518 37,000  Level Gander Center
10:55AM 61.8167 -60.3667 231° Southwest 450 518 37,000  Level Gander Center
10:56AM 61.7167 -60.5500 221° Southwest 450 518 37,000  Level Gander Center
10:57AM 61.6333 -60.6833 217° Southwest 450 518 37,000  Level Gander Center
10:58AM 61.5500 -60.8667 226° Southwest 460 529 37,000  Level Gander Center
10:59AM 61.4500 -61.0333 219° Southwest 450 518 37,000  Level Gander Center
11:00AM 61.3500 -61.2167 221° Southwest 450 518 37,000  Level Gander Center
11:01AM 61.2667 -61.3833 224° Southwest 450 518 37,000  Level Gander Center
11:02AM 61.1667 -61.5500 219° Southwest 450 518 37,000  Level Gander Center
11:03AM 61.0667 -61.7333 222° Southwest 450 518 37,000  Level Gander Center
11:04AM 60.9833 -61.8667 218° Southwest 450 518 37,000  Level Gander Center
11:05AM 60.8833 -62.0333 219° Southwest 450 518 37,000  Level Gander Center
11:06AM 60.7833 -62.2000 219° Southwest 450 518 37,000  Level Gander Center
11:07AM 60.6833 -62.4000 224° Southwest 440 506 37,000  Level Gander Center
11:08AM 60.6000 -62.6000 230° Southwest 440 506 37,000  Level Gander Center
11:09AM 60.5333 -62.8000 236° Southwest 440 506 37,000  Level Gander Center
11:10AM 60.5000 -63.0333 254° West 440 506 37,000  Level Gander Center
11:11AM 60.4667 -63.2667 254° West 430 495 37,000  Level Gander Center
11:12AM 60.4167 -63.5000 247° West 440 506 37,000  Level Gander Center
11:13AM 60.3833 -63.7333 254° West 440 506 37,000  Level Gander Center
11:14AM 60.3333 -63.9667 247° West 440 506 37,000  Level Gander Center
11:15AM 60.2833 -64.2000 247° West 440 506 37,000  Level Gander Center
11:16AM 60.2500 -64.4333 254° West 440 506 37,000  Level Gander Center
11:17AM 60.2000 -64.6667 247° West 440 506 37,000 -180 Level Gander Center
11:18AM 60.1500 -64.8833 245° Southwest 450 518 36,700 -420 Descending Gander Center
11:19AM 60.1000 -65.0833 243° Southwest 440 506 36,200 -360 Descending Gander Center
11:20AM 60.0333 -65.2833 236° Southwest 440 506 36,000 -120 Descending Gander Center
11:21AM 59.9333 -65.4333 217° Southwest 440 506 36,000  Level Gander Center
11:22AM 59.8500 -65.6167 228° Southwest 450 518 36,000  Level Gander Center
11:23AM 59.7500 -65.7667 217° Southwest 440 506 36,000  Level Gander Center
11:24AM 59.6500 -65.9333 220° Southwest 440 506 36,000  Level Gander Center
11:25AM 59.5667 -66.0833 222° Southwest 440 506 36,000  Level Gander Center
11:26AM 59.4833 -66.2333 222° Southwest 440 506 36,000  Level Gander Center
11:27AM 59.3667 -66.4167 219° Southwest 440 506 36,000  Level Gander Center
11:28AM 59.2833 -66.5667 223° Southwest 440 506 36,000  Level Gander Center
11:29AM 59.2000 -66.7167 223° Southwest 440 506 36,000  Level Gander Center
11:30AM 59.1000 -66.8667 218° Southwest 440 506 36,000  Level Gander Center
11:31AM 59.0000 -67.0333 221° Southwest 450 518 36,000  Level Gander Center
11:32AM 58.9000 -67.1833 218° Southwest 450 518 36,000  Level Gander Center
11:33AM 58.8167 -67.3333 223° Southwest 450 518 36,000  Level Gander Center
11:34AM 58.7333 -67.4833 223° Southwest 440 506 36,000  Level Gander Center
11:35AM 58.6167 -67.6167 211° Southwest 450 518 36,000  Level Gander Center
11:36AM 58.5167 -67.7667 218° Southwest 450 518 36,000  Level Gander Center
11:37AM 58.4167 -67.9000 215° Southwest 450 518 36,000  Level Gander Center
11:38AM 58.3167 -68.0167 212° Southwest 450 518 36,000  Level Gander Center
11:39AM 58.2167 -68.1500 215° Southwest 450 518 36,000  Level Gander Center
11:40AM 58.1167 -68.3000 218° Southwest 440 506 36,000  Level Gander Center
11:41AM 58.0167 -68.4333 215° Southwest 430 495 36,000  Level Gander Center
11:42AM 57.9000 -68.5333 204° Southwest 450 518 36,000  Level Gander Center
11:43AM 57.8000 -68.6667 215° Southwest 450 518 36,000  Level Gander Center
11:44AM 57.6833 -68.8167 215° Southwest 450 518 36,000  Level Gander Center
11:45AM 57.5833 -68.9500 216° Southwest 450 518 36,000  Level Gander Center
11:46AM 57.4667 -69.0833 212° Southwest 450 518 36,000  Level Gander Center
11:47AM 57.3833 -69.2167 221° Southwest 450 518 36,000  Level Gander Center
11:48AM 57.2667 -69.3500 212° Southwest 450 518 36,000  Level Gander Center
11:49AM 57.1667 -69.4500 208° Southwest 460 529 36,000  Level Gander Center
11:50AM 57.0500 -69.5833 212° Southwest 450 518 36,000  Level Gander Center
11:51AM 56.9333 -69.7000 209° Southwest 450 518 36,000  Level Montreal Center
11:52AM 56.8333 -69.8000 209° Southwest 450 518 36,000  Level Montreal Center
11:53AM 56.7167 -69.9500 215° Southwest 450 518 36,000  Level Montreal Center
11:54AM 56.6167 -70.0500 209° Southwest 450 518 36,000  Level Montreal Center
11:55AM 56.5000 -70.2000 215° Southwest 450 518 36,000  Level Montreal Center
11:56AM 56.4000 -70.3000 209° Southwest 450 518 36,000  Level Montreal Center
11:57AM 56.3000 -70.4333 217° Southwest 460 529 36,000  Level Montreal Center
11:58AM 56.1833 -70.5833 216° Southwest 460 529 36,000  Level Montreal Center
11:59AM 56.0667 -70.6833 206° Southwest 460 529 36,000  Level Montreal Center
12:00PM 55.9667 -70.8167 217° Southwest 460 529 36,000  Level Montreal Center
12:01PM 55.8500 -70.9167 206° Southwest 460 529 36,000  Level Montreal Center
12:02PM 55.7333 -71.0333 209° Southwest 450 518 36,000  Level Montreal Center
12:03PM 55.6333 -71.1667 217° Southwest 450 518 36,000  Level Montreal Center
12:04PM 55.5167 -71.2667 206° Southwest 460 529 36,000  Level Montreal Center
12:05PM 55.4167 -71.4000 217° Southwest 450 518 36,000  Level Montreal Center
12:06PM 55.3167 -71.5000 210° Southwest 450 518 36,000  Level Montreal Center
12:07PM 55.2000 -71.6167 210° Southwest 450 518 36,000  Level Montreal Center
12:08PM 55.0833 -71.7333 210° Southwest 460 529 36,000  Level Montreal Center
12:09PM 54.9833 -71.8500 214° Southwest 460 529 36,000  Level Montreal Center
12:10PM 54.8667 -71.9500 206° Southwest 460 529 36,000  Level Montreal Center
12:11PM 54.7667 -72.0833 218° Southwest 460 529 36,000  Level Montreal Center
12:12PM 54.6500 -72.1833 206° Southwest 460 529 36,000  Level Montreal Center
12:13PM 54.5333 -72.3000 210° Southwest 460 529 36,000  Level Montreal Center
12:14PM 54.4167 -72.4333 214° Southwest 470 541 36,000  Level Montreal Center
12:15PM 54.3000 -72.5500 210° Southwest 470 541 36,000  Level Montreal Center
12:16PM 54.1833 -72.6500 207° Southwest 470 541 36,000  Level Montreal Center
12:17PM 54.0667 -72.7833 214° Southwest 470 541 36,000  Level Montreal Center
12:19PM 53.8667 -73.0000 213° Southwest 470 541 36,000  Level Gander Center
12:20PM 53.7500 -73.1167 211° Southwest 470 541 36,000  Level Gander Center
12:21PM 53.6500 -73.2167 211° Southwest 470 541 36,000  Level Gander Center
12:22PM 53.5333 -73.3333 211° Southwest 470 541 36,000  Level Gander Center
12:23PM 53.4167 -73.4333 207° Southwest 470 541 36,000  Level Gander Center
12:24PM 53.3167 -73.5500 215° Southwest 470 541 36,000  Level Gander Center
12:25PM 53.2000 -73.6667 211° Southwest 470 541 36,000  Level Gander Center
12:26PM 53.0667 -73.7833 208° Southwest 480 552 36,000  Level Gander Center
12:27PM 52.9500 -73.9000 211° Southwest 470 541 36,000  Level Gander Center
12:28PM 52.8333 -74.0000 207° Southwest 470 541 36,000  Level Gander Center
12:29PM 52.7333 -74.1167 215° Southwest 480 552 36,000  Level Gander Center
12:30PM 52.6167 -74.2167 208° Southwest 480 552 36,000  Level Gander Center
12:31PM 52.5000 -74.3167 208° Southwest 480 552 36,000  Level Gander Center
12:32PM 52.3833 -74.4333 211° Southwest 480 552 36,000  Level Gander Center
12:33PM 52.2667 -74.5333 208° Southwest 480 552 36,000  Level Gander Center
12:34PM 52.1667 -74.6333 212° Southwest 480 552 36,000  Level Gander Center
12:35PM 52.0500 -74.7333 208° Southwest 470 541 36,000  Level Gander Center
12:36PM 51.9333 -74.8500 212° Southwest 470 541 36,000  Level Gander Center
12:37PM 51.8000 -74.9333 201° Southwest 470 541 36,000  Level Gander Center
12:38PM 51.6833 -75.0333 208° Southwest 470 541 36,000  Level Gander Center
12:39PM 51.5833 -75.1167 207° Southwest 480 552 36,000  Level Gander Center
12:40PM 51.4333 -75.2167 203° Southwest 470 541 36,000  Level Montreal Center
12:41PM 51.3167 -75.3167 208° Southwest 470 541 36,000  Level Montreal Center
12:42PM 51.2000 -75.4000 204° Southwest 470 541 36,000  Level Montreal Center
12:43PM 51.1000 -75.5167 216° Southwest 470 541 36,000  Level Montreal Center
12:44PM 50.9667 -75.6167 205° Southwest 470 541 36,000  Level Montreal Center
12:45PM 50.8667 -75.7000 208° Southwest 470 541 36,000  Level Montreal Center
12:46PM 50.7333 -75.8000 205° Southwest 470 541 36,000  Level Montreal Center
12:47PM 50.6333 -75.9167 217° Southwest 470 541 36,000  Level Montreal Center
12:48PM 50.5000 -76.0000 202° Southwest 470 541 36,000  Level Montreal Center
12:50PM 50.2667 -76.2000 209° Southwest 470 541 36,000  Level Montreal Center
12:51PM 50.1667 -76.2833 208° Southwest 470 541 36,000  Level Montreal Center
12:52PM 50.0167 -76.3833 203° Southwest 480 552 36,000  Level Montreal Center
12:53PM 49.9000 -76.4833 209° Southwest 470 541 36,000  Level Montreal Center
12:54PM 49.8000 -76.5667 208° Southwest 470 541 36,000  Level Montreal Center
12:55PM 49.6667 -76.6667 206° Southwest 480 552 36,000  Level Montreal Center
12:56PM 49.5667 -76.7667 213° Southwest 460 529 36,000  Level Montreal Center
12:57PM 49.4333 -76.8500 202° Southwest 490 564 36,000  Level Montreal Center
12:58PM 49.3333 -76.9500 213° Southwest 470 541 36,000  Level Montreal Center
12:59PM 49.2167 -77.0500 209° Southwest 460 529 36,000  Level Montreal Center
01:00PM 49.1000 -77.1167 201° Southwest 470 541 36,000  Level Montreal Center
01:01PM 48.9833 -77.2167 209° Southwest 470 541 36,000  Level Montreal Center
01:02PM 48.8500 -77.3000 202° Southwest 470 541 36,000  Level Montreal Center
01:03PM 48.7333 -77.4000 209° Southwest 470 541 36,000  Level Montreal Center
01:04PM 48.6167 -77.5000 210° Southwest 470 541 36,000  Level Montreal Center
01:05PM 48.5000 -77.5833 205° Southwest 470 541 36,000  Level Montreal Center
01:06PM 48.3833 -77.6667 205° Southwest 470 541 36,000  Level Montreal Center
01:07PM 48.2667 -77.7667 210° Southwest 470 541 36,000  Level Montreal Center
01:08PM 48.1500 -77.8333 201° Southwest 470 541 36,000  Level Montreal Center
01:09PM 48.0333 -77.9000 201° Southwest 470 541 36,000  Level Montreal Center
01:10PM 47.9000 -77.9667 199° South 470 541 36,000  Level Montreal Center
01:11PM 47.7833 -78.0333 201° Southwest 470 541 36,000  Level Montreal Center
01:12PM 47.6500 -78.1167 203° Southwest 470 541 36,000  Level Montreal Center
01:13PM 47.5333 -78.1833 201° Southwest 470 541 36,000  Level Montreal Center
01:14PM 47.4167 -78.2500 201° Southwest 470 541 36,000  Level Montreal Center
01:15PM 47.3000 -78.3500 210° Southwest 470 541 36,000  Level Montreal Center
01:16PM 47.1833 -78.3833 191° South 470 541 36,000  Level Montreal Center
01:17PM 47.0333 -78.4833 204° Southwest 470 541 36,000  Level Montreal Center
01:18PM 46.9333 -78.5500 204° Southwest 470 541 36,000  Level Montreal Center
01:19PM 46.8000 -78.5833 190° South 470 541 36,000  Level Toronto Center
01:20PM 46.6667 -78.6667 203° Southwest 470 541 36,000  Level Toronto Center
01:21PM 46.5500 -78.7167 196° South 470 541 36,000  Level Toronto Center
01:22PM 46.4333 -78.7833 201° Southwest 470 541 36,000  Level Toronto Center
01:23PM 46.3000 -78.8667 203° Southwest 470 541 36,000  Level Toronto Center
01:24PM 46.1833 -78.9333 202° Southwest 470 541 36,000  Level Toronto Center
01:25PM 46.0667 -78.9833 197° South 460 529 36,000  Level Toronto Center
01:26PM 45.9333 -79.0500 199° South 460 529 36,000  Level Toronto Center
01:31PM 45.3370 -79.4013 199° South 458 527 36,000  Level FlightAware ADS-B
01:32PM 45.1899 -79.4786 200° South 460 529 36,000  Level FlightAware ADS-B
01:33PM 45.0828 -79.5345 200° South 466 536 36,000  Level FlightAware ADS-B
01:34PM 44.9667 -79.5667 200° South 460 529 36,000  Level Toronto Center
01:39PM 44.3789 -79.9764 200° South 444 511 36,000  Level FlightAware ADS-B
01:40PM 44.2854 -80.0602 213° Southwest 434 499 36,000  Level FlightAware ADS-B
01:41PM 44.2351 -80.1053 213° Southwest 434 499 36,000  Level FlightAware ADS-B
01:41PM 44.1778 -80.1563 213° Southwest 433 498 36,000  Level FlightAware ADS-B
01:42PM 44.1160 -80.2114 213° Southwest 432 497 36,000  Level FlightAware ADS-B
01:43PM 44.0386 -80.2799 212° Southwest 431 496 36,000  Level FlightAware ADS-B
01:43PM 43.9827 -80.3294 213° Southwest 432 497 36,000  Level FlightAware ADS-B
01:44PM 43.9216 -80.3834 212° Southwest 436 502 36,000  Level FlightAware ADS-B
01:45PM 43.8300 -80.4641 212° Southwest 439 505 36,000  Level FlightAware ADS-B
01:45PM 43.7660 -80.5205 212° Southwest 441 507 36,000  Level FlightAware ADS-B
01:46PM 43.6670 -80.6068 212° Southwest 441 507 36,000  Level FlightAware ADS-B
01:47PM 43.5995 -80.6656 212° Southwest 440 506 36,000  Level FlightAware ADS-B
01:48PM 43.5270 -80.7286 212° Southwest 439 505 36,000  Level FlightAware ADS-B
01:48PM 43.4554 -80.7906 212° Southwest 437 503 36,000  Level FlightAware ADS-B
01:49PM 43.3902 -80.8469 212° Southwest 435 501 36,000  Level FlightAware ADS-B
01:50PM 43.3180 -80.9092 212° Southwest 431 496 36,000  Level FlightAware ADS-B
01:50PM 43.2490 -80.9686 212° Southwest 431 496 36,000  Level FlightAware ADS-B
01:51PM 43.1833 -81.0251 212° Southwest 433 498 36,000  Level FlightAware ADS-B
01:52PM 43.1162 -81.0823 212° Southwest 435 501 36,000  Level FlightAware ADS-B
01:52PM 43.0458 -81.1413 211° Southwest 439 505 36,000  Level FlightAware ADS-B
01:53PM 42.9787 -81.1837 205° Southwest 441 507 36,000  Level FlightAware ADS-B
01:54PM 42.9067 -81.2293 205° Southwest 440 506 36,000  Level FlightAware ADS-B
01:54PM 42.8237 -81.2814 205° Southwest 440 506 36,000  Level FlightAware ADS-B
01:55PM 42.7606 -81.3204 204° Southwest 440 506 36,000  Level FlightAware ADS-B
01:56PM 42.6751 -81.3728 204° Southwest 444 511 36,000  Level FlightAware ADS-B
01:57PM 42.5322 -81.4600 204° Southwest 445 512 36,000  Level FlightAware ADS-B
01:59PM 42.3108 -81.5944 204° Southwest 447 514 36,000  Level FlightAware ADS-B
02:00PM 42.2361 -81.6386 204° Southwest 446 513 36,000  Level Cleveland Center
02:01PM 42.1214 -81.7086 204° Southwest 448 516 36,000  Level Cleveland Center
02:02PM 42.0075 -81.7767 204° Southwest 445 512 36,000  Level Cleveland Center
02:03PM 41.8950 -81.8436 204° Southwest 440 506 36,000  Level Cleveland Center
02:04PM 41.7811 -81.9103 204° Southwest 443 510 36,000  Level Cleveland Center
02:05PM 41.6494 -81.9883 204° Southwest 442 509 36,000  Level Cleveland Center
02:06PM 41.5361 -82.0558 204° Southwest 444 511 36,000  Level Cleveland Center
02:07PM 41.4239 -82.1228 204° Southwest 442 509 36,000  Level Cleveland Center
02:08PM 41.3081 -82.1769 199° South 444 511 36,000  Level Cleveland Center
02:09PM 41.1864 -82.2225 196° South 452 520 36,000  Level Cleveland Center
02:10PM 41.0436 -82.2725 195° South 454 522 36,000  Level Cleveland Center
02:11PM 40.9194 -82.3169 195° South 459 528 36,000  Level Cleveland Center
02:12PM 40.8372 -82.3453 195° South 458 527 36,000  Level Indianapolis Center
02:13PM 40.7122 -82.3900 195° South 460 529 36,000  Level Indianapolis Center
02:14PM 40.5681 -82.4425 195° South 459 528 36,000  Level Indianapolis Center
02:19PM 39.8623 -82.6080 195° South 471 542 36,000  Level FlightAware ADS-B
02:20PM 39.7719 -82.6141 183° South 467 537 36,000  Level FlightAware ADS-B
02:21PM 39.6903 -82.6196 183° South 463 533 36,000  Level FlightAware ADS-B
02:21PM 39.5981 -82.6257 183° South 460 529 36,000  Level FlightAware ADS-B
02:22PM 39.5104 -82.6317 183° South 460 529 36,000  Level FlightAware ADS-B
02:23PM 39.4253 -82.6375 183° South 460 529 36,000  Level FlightAware ADS-B
02:23PM 39.3399 -82.6432 183° South 458 527 36,000  Level FlightAware ADS-B
02:24PM 39.2596 -82.6485 183° South 457 526 36,000  Level FlightAware ADS-B
02:25PM 39.1720 -82.6543 183° South 457 526 36,000  Level FlightAware ADS-B
02:25PM 39.0869 -82.6599 183° South 458 527 36,000  Level FlightAware ADS-B
02:26PM 39.0027 -82.6654 183° South 456 525 36,000  Level FlightAware ADS-B
02:27PM 38.9258 -82.6703 183° South 445 512 36,000  Level FlightAware ADS-B
02:27PM 38.8396 -82.6760 183° South 440 506 36,000  Level FlightAware ADS-B
02:28PM 38.7579 -82.6816 183° South 439 505 36,000  Level FlightAware ADS-B
02:29PM 38.6314 -82.6894 183° South 436 502 36,000  Level Indianapolis Center
02:30PM 38.5081 -82.6972 183° South 442 509 36,000  Level Indianapolis Center
02:31PM 38.3642 -82.7083 183° South 442 509 36,000  Level Indianapolis Center
02:32PM 38.2394 -82.7158 183° South 445 512 36,000  Level Indianapolis Center
02:33PM 38.1172 -82.7233 183° South 439 505 36,000  Level Indianapolis Center
02:34PM 37.9947 -82.7325 183° South 438 504 36,000  Level Indianapolis Center
02:35PM 37.8714 -82.7400 183° South 441 507 36,000  Level Indianapolis Center
02:36PM 37.7492 -82.7489 183° South 439 505 36,000  Level Indianapolis Center
02:38PM 37.6183 -82.7928 195° South 418 481 36,000  Level Indianapolis Center
02:39PM 37.5150 -82.8578 207° Southwest 413 475 36,000  Level Indianapolis Center
02:40PM 37.4139 -82.9258 208° Southwest 412 474 36,000  Level Indianapolis Center
02:41PM 37.3122 -82.9928 208° Southwest 412 474 36,000  Level Indianapolis Center
02:42PM 37.2106 -83.0592 207° Southwest 413 475 36,000  Level Indianapolis Center
02:43PM 37.0911 -83.1356 207° Southwest 414 476 36,000  Level Indianapolis Center
02:44PM 36.9892 -83.2028 208° Southwest 418 481 36,000  Level Indianapolis Center
02:45PM 36.8869 -83.2689 207° Southwest 418 481 36,000  Level Indianapolis Center
02:46PM 36.7844 -83.3344 207° Southwest 416 479 36,000  Level Indianapolis Center
02:47PM 36.6650 -83.4108 207° Southwest 415 478 36,000  Level Indianapolis Center
02:48PM 36.5617 -83.4769 207° Southwest 415 478 36,000  Level Indianapolis Center
02:49PM 36.4519 -83.5486 208° Southwest 409 471 36,000  Level Indianapolis Center
02:50PM 36.3503 -83.6136 207° Southwest 409 471 36,000  Level Indianapolis Center
02:51PM 36.2475 -83.6789 207° Southwest 413 475 36,000  Level Indianapolis Center
02:52PM 36.1450 -83.7436 207° Southwest 412 474 36,000  Level Indianapolis Center
02:53PM 36.0428 -83.8078 207° Southwest 411 473 36,000  Level Indianapolis Center
02:54PM 35.9392 -83.8719 207° Southwest 414 476 36,000  Level Indianapolis Center
02:55PM 35.8281 -83.9136 197° South 414 476 36,000  Level Indianapolis Center
02:56PM 35.6883 -83.9475 191° South 423 487 36,000  Level Indianapolis Center
02:57PM 35.5431 -83.9853 192° South 422 486 36,000  Level Atlanta Center
02:58PM 35.4303 -84.0108 190° South 427 491 36,000  Level Atlanta Center
02:59PM 35.3136 -84.0389 191° South 427 491 36,000  Level Atlanta Center
03:00PM 35.1989 -84.0692 192° South 427 491 36,000  Level Atlanta Center
03:01PM 35.0839 -84.0947 190° South 427 491 36,000  Level Atlanta Center
03:02PM 34.9692 -84.1225 191° South 427 491 36,000  Level Atlanta Center
03:03PM 34.8564 -84.1475 190° South 427 491 36,000  Level Atlanta Center
03:04PM 34.7417 -84.1753 191° South 427 491 36,000  Level Atlanta Center
03:05PM 34.6414 -84.1978 190° South 422 486 36,000  Level Atlanta Center
03:06PM 34.5331 -84.2228 191° South 411 473 36,000  Level Atlanta Center
03:07PM 34.4078 -84.2528 191° South 411 473 36,000  Level Atlanta Center
03:08PM 34.2950 -84.2803 191° South 411 473 36,000  Level Atlanta Center
03:09PM 34.1822 -84.3075 191° South 411 473 36,000  Level Atlanta Center
03:10PM 34.0778 -84.3322 191° South 416 479 36,000  Level Atlanta Center
03:11PM 33.9628 -84.3594 191° South 416 479 36,000  Level Atlanta Center
03:12PM 33.8522 -84.3864 191° South 416 479 36,000  Level Atlanta Center
03:13PM 33.7331 -84.4136 191° South 421 484 36,000  Level Atlanta Center
03:14PM 33.6142 -84.4331 188° South 429 494 36,000  Level Atlanta Center
03:15PM 33.4931 -84.4347 181° South 434 499 36,000  Level Atlanta Center
03:16PM 33.3575 -84.4342 180° South 444 511 36,000  Level Atlanta Center
03:17PM 33.2322 -84.4311 179° South 439 505 36,000  Level Atlanta Center
03:18PM 33.1089 -84.4306 180° South 447 514 36,000  Level Atlanta Center
03:19PM 32.9839 -84.4278 179° South 447 514 36,000  Level Atlanta Center
03:20PM 32.8564 -84.4269 180° South 447 514 36,000  Level Atlanta Center
03:21PM 32.7353 -84.4192 177° South 447 514 36,000  Level Atlanta Center
03:22PM 32.6164 -84.4161 179° South 442 509 36,000  Level Atlanta Center
03:23PM 32.4953 -84.4131 179° South 437 503 36,000  Level Atlanta Center
03:24PM 32.3764 -84.4128 180° South 437 503 36,000  Level Atlanta Center
03:25PM 32.2575 -84.4097 179° South 437 503 36,000 -240 Level Atlanta Center
03:29PM 31.7608 -84.3978 179° South 444 511 35,000 -120 Descending Jacksonville Center
03:36PM 30.9957 -84.1257 179° South 469 540 35,000  Level FlightAware ADS-B (KTLH)
03:36PM 30.9111 -84.0822 156° South 468 539 35,000  Level FlightAware ADS-B (KTLH)
03:37PM 30.8275 -84.0392 156° South 467 537 35,000  Level FlightAware ADS-B (KTLH)
03:38PM 30.7488 -83.9988 156° South 465 535 35,000  Level FlightAware ADS-B (KTLH)
03:38PM 30.6720 -83.9596 156° South 465 535 35,000  Level FlightAware ADS-B (KTLH)
03:39PM 30.5915 -83.9186 156° South 467 537 35,000  Level FlightAware ADS-B (KTLH)
03:40PM 30.5150 -83.8795 156° South 468 539 35,000  Level FlightAware ADS-B (KTLH)
03:40PM 30.4325 -83.8376 156° South 469 540 35,000  Level FlightAware ADS-B (KTLH)
03:41PM 30.3553 -83.7983 156° South 471 542 35,000  Level FlightAware ADS-B (KTLH)
03:42PM 30.2826 -83.7615 156° South 473 544 35,000  Level FlightAware ADS-B (KTLH)
03:42PM 30.1935 -83.7163 156° South 474 545 35,000  Level FlightAware ADS-B (KTLH)
03:43PM 30.1259 -83.6822 156° South 472 543 35,000  Level FlightAware ADS-B (KTLH)
03:44PM 29.9612 -83.5992 156° South 473 544 35,000  Level FlightAware ADS-B (KTLH)
03:45PM 29.8389 -83.5392 156° South 475 547 35,000  Level Jacksonville Center
03:46PM 29.7203 -83.4786 156° South 475 547 35,000  Level Jacksonville Center
03:47PM 29.5994 -83.4228 158° South 475 547 35,000  Level Jacksonville Center
03:48PM 29.4806 -83.3603 155° Southeast 475 547 35,000  Level Jacksonville Center
03:49PM 29.3597 -83.3025 157° South 475 547 35,000  Level Jacksonville Center
03:56PM 28.6088 -82.9287 157° South 469 540 35,000  Level FlightAware ADS-B (KMCO)
03:57PM 28.5028 -82.8770 157° South 474 545 35,000  Level FlightAware ADS-B (KMCO)
03:57PM 28.4245 -82.8387 157° South 465 535 35,000  Level FlightAware ADS-B (KMCO)
03:58PM 28.2918 -82.7740 157° South 461 531 35,000  Level FlightAware ADS-B (KMCO)
03:59PM 28.2128 -82.7359 157° South 472 543 35,000  Level FlightAware ADS-B (KMCO)
04:00PM 28.1203 -82.6908 157° South 461 531 35,000  Level FlightAware ADS-B (KMCO)
04:00PM 28.0385 -82.6513 157° South 451 519 35,000  Level FlightAware ADS-B (KMCO)
04:01PM 27.9741 -82.6204 157° South 452 520 35,000  Level FlightAware ADS-B (KMCO)
04:02PM 27.8814 -82.5758 157° South 454 522 35,000  Level FlightAware ADS-B (KMCO)
04:03PM 27.7970 -82.5352 157° South 453 521 35,000  Level FlightAware ADS-B (KMCO)
04:03PM 27.7108 -82.4936 157° South 448 516 35,000  Level FlightAware ADS-B (KMCO)
04:04PM 27.6449 -82.4621 157° South 448 516 35,000  Level FlightAware ADS-B (KMCO)
04:05PM 27.4990 -82.3922 157° South 450 518 35,000  Level FlightAware ADS-B (KMCO)
04:06PM 27.3628 -82.3272 157° South 453 521 35,000  Level FlightAware ADS-B (KMCO)
04:08PM 27.2087 -82.2585 158° South 456 525 35,000  Level FlightAware ADS-B (KMCO)
04:08PM 27.1239 -82.2212 159° South 456 525 35,000  Level FlightAware ADS-B (KMCO)
04:11PM 26.8351 -82.0940 159° South 468 539 35,000  Level FlightAware ADS-B (KMCO)
04:12PM 26.7494 -82.0563 159° South 468 539 35,000  Level FlightAware ADS-B (KMCO)
04:12PM 26.6627 -82.0183 159° South 466 536 35,000  Level FlightAware ADS-B (KMCO)
04:13PM 26.5806 -81.9823 159° South 464 534 35,000  Level FlightAware ADS-B (KMCO)
04:14PM 26.4979 -81.9461 159° South 462 532 35,000  Level FlightAware ADS-B (KMCO)
04:14PM 26.4181 -81.9112 159° South 461 531 35,000  Level FlightAware ADS-B (KMCO)
04:15PM 26.3355 -81.8754 159° South 461 531 35,000  Level FlightAware ADS-B (KMCO)
04:16PM 26.2547 -81.8404 159° South 462 532 35,000  Level FlightAware ADS-B (KMCO)
04:16PM 26.1854 -81.8101 159° South 463 533 35,000  Level FlightAware ADS-B (KMCO)
04:17PM 26.0819 -81.7653 159° South 464 534 35,000  Level FlightAware ADS-B (KMCO)
04:18PM 25.9555 -81.7106 159° South 464 534 35,000  Level FlightAware ADS-B (KMCO)
04:19PM 25.8847 -81.6800 159° South 467 537 35,000  Level FlightAware ADS-B (KMCO)
04:20PM 25.7110 -81.6051 159° South 470 541 35,000  Level FlightAware ADS-B (KMCO)
04:21PM 25.5944 -81.5640 162° South 461 531 35,000  Level FlightAware ADS-B (KMCO)
04:23PM 25.4267 -81.5497 162° South 462 532 35,000 -120 Level Miami Center
04:24PM 25.3069 -81.5725 190° South 444 511 34,800 -600 Descending Miami Center
04:25PM 25.1933 -81.6025 193° South 432 497 33,800 -1,020 Descending Miami Center
04:26PM 25.0814 -81.6350 195° South 425 489 32,800 -1,020 Descending Miami Center
04:27PM 24.9697 -81.6672 195° South 425 489 31,800 -900 Descending Miami Center
04:28PM 24.8792 -81.6911 193° South 419 482 31,000 -900 Descending Miami Center
04:29PM 24.7631 -81.7278 196° South 413 475 30,000 -540 Descending Miami Center
04:30PM 24.6408 -81.7642 195° South 406 467 30,000  Level Miami Center
04:31PM 24.5406 -81.8264 209° Southwest 406 467 30,000 -300 Level Miami Center
04:32PM 24.4650 -81.8986 221° Southwest 381 438 29,500 -840 Descending Miami Center
04:33PM 24.3994 -81.9872 231° Southwest 374 430 28,400 -1,200 Descending Miami Center
04:34PM 24.3358 -82.0781 232° Southwest 379 436 27,200 -1,200 Descending Miami Center
04:35PM 24.2681 -82.1617 228° Southwest 379 436 26,000 -1,200 Descending Miami Center
04:36PM 24.2064 -82.2478 232° Southwest 379 436 24,800 -1,200 Descending Miami Center
04:37PM 24.1428 -82.3317 230° Southwest 369 425 23,700 -1,080 Descending Miami Center
04:38PM 24.0814 -82.4153 231° Southwest 364 419 22,700 -1,080 Descending Miami Center
04:39PM 24.0200 -82.4944 230° Southwest 358 412 21,600 -1,140 Descending Miami Center
04:40PM 23.9157 -82.5046 173° South  Level FlightAware Approximate
04:47PM 23.0918 -82.4084 170° South  Level FlightAware Approximate
04:48PM 22.9891 -82.4091 180° South  Level Estimated
04:49PM 22.9891 -82.4091 180° South  Level Estimated
04:50PM 22.9891 -82.4091 180° South  Level Estimated
04:51PM 22.9891 -82.4091 180° South  Level Estimated
04:52PM 22.9891 -82.4091 180° South  Level Estimated
04:53PM 22.9891 -82.4091 180° South  Level Estimated
04:54PM 22.9891 -82.4091 180° South  Level Estimated
04:55PM 22.9891 -82.4091 180° South  Level Estimated
04:56PM 22.9891 -82.4091 180° South  Level Estimated
04:57PM 22.9891 -82.4091 180° South  Level Estimated
04:58PM 22.9891 -82.4091 180° South  Level Estimated
04:59PM 22.9891 -82.4091 180° South  Level Estimated
05:00PM 22.9891 -82.4091 180° South  Level Estimated
05:01PM 22.9891 -82.4091 180° South  Level Estimated
05:02PM 22.9891 -82.4091 180° South  Level Estimated
05:03PM 22.9891 -82.4091 180° South  Level Estimated
05:04PM 22.9891 -82.4091 180° South  Level Estimated
05:05PM 22.9891 -82.4091 180° South  Level Estimated
05:06PM 22.9891 -82.4091 180° South  Level Estimated
05:07PM 22.9891 -82.4091 180° South  Level Estimated
05:08PM 22.9891 -82.4091 180° South  Level Estimated
05:09PM 22.9891 -82.4091 180° South  Level Estimated